sensor_id;sensor_type;location;lat;lon;timestamp;temperature;humidity
18406;DHT22;9329;48.720;9.588;2023-01-10T00:00:28;8.30;99.90
18406;DHT22;9329;48.720;9.588;2023-01-10T00:03:00;8.40;99.90
18406;DHT22;9329;48.720;9.588;2023-01-10T00:05:27;8.30;99.90
18406;DHT22;9329;48.720;9.588;2023-01-10T00:07:54;8.20;99.90
18406;DHT22;9329;48.720;9.588;2023-01-10T00:10:21;8.20;99.90
18406;DHT22;9329;48.720;9.588;2023-01-10T00:12:48;7.60;99.90
18406;DHT22;9329;48.720;9.588;2023-01-10T00:15:34;7.30;99.90
18406;DHT22;9329;48.720;9.588;2023-01-10T00:18:01;7.40;99.90
18406;DHT22;9329;48.720;9.588;2023-01-10T00:20:29;7.20;99.90
18406;DHT22;9329;48.720;9.588;2023-01-10T00:22:56;7.20;99.90
18406;DHT22;9329;48.720;9.588;2023-01-10T00:25:23;7.10;99.90
18406;DHT22;9329;48.720;9.588;2023-01-10T00:27:53;7.20;99.90
18406;DHT22;9329;48.720;9.588;2023-01-10T00:30:26;7.10;99.90
18406;DHT22;9329;48.720;9.588;2023-01-10T00:32:54;7.40;99.90
18406;DHT22;9329;48.720;9.588;2023-01-10T00:35:22;7.20;99.90
18406;DHT22;9329;48.720;9.588;2023-01-10T00:37:48;7.40;99.90
18406;DHT22;9329;48.720;9.588;2023-01-10T00:40:16;7.40;99.90
18406;DHT22;9329;48.720;9.588;2023-01-10T00:42:43;7.40;99.90
18406;DHT22;9329;48.720;9.588;2023-01-10T00:45:28;7.80;99.90
18406;DHT22;9329;48.720;9.588;2023-01-10T00:47:56;7.30;99.90
18406;DHT22;9329;48.720;9.588;2023-01-10T00:50:23;7.20;99.90
18406;DHT22;9329;48.720;9.588;2023-01-10T00:52:50;7.30;99.90
18406;DHT22;9329;48.720;9.588;2023-01-10T00:55:17;7.60;99.90
18406;DHT22;9329;48.720;9.588;2023-01-10T00:57:44;7.60;99.90
18406;DHT22;9329;48.720;9.588;2023-01-10T01:00:12;7.10;99.90
18406;DHT22;9329;48.720;9.588;2023-01-10T01:02:39;7.50;99.90
18406;DHT22;9329;48.720;9.588;2023-01-10T01:05:08;7.30;99.90
18406;DHT22;9329;48.720;9.588;2023-01-10T01:07:35;7.30;99.90
18406;DHT22;9329;48.720;9.588;2023-01-10T01:10:02;7.60;99.90
18406;DHT22;9329;48.720;9.588;2023-01-10T01:12:47;7.40;99.90
18406;DHT22;9329;48.720;9.588;2023-01-10T01:15:14;7.60;99.90
18406;DHT22;9329;48.720;9.588;2023-01-10T01:17:41;7.70;99.90
18406;DHT22;9329;48.720;9.588;2023-01-10T01:20:10;7.70;99.90
18406;DHT22;9329;48.720;9.588;2023-01-10T01:22:37;7.50;99.90
18406;DHT22;9329;48.720;9.588;2023-01-10T01:25:05;7.20;99.90
18406;DHT22;9329;48.720;9.588;2023-01-10T01:27:32;7.40;99.90
18406;DHT22;9329;48.720;9.588;2023-01-10T01:29:59;7.60;99.90
18406;DHT22;9329;48.720;9.588;2023-01-10T01:32:26;7.70;99.90
18406;DHT22;9329;48.720;9.588;2023-01-10T01:34:53;7.50;99.90
18406;DHT22;9329;48.720;9.588;2023-01-10T01:37:22;7.30;99.90
18406;DHT22;9329;48.720;9.588;2023-01-10T01:39:49;7.40;99.90
18406;DHT22;9329;48.720;9.588;2023-01-10T01:42:23;7.60;99.90
18406;DHT22;9329;48.720;9.588;2023-01-10T01:48:13;7.00;99.90
18406;DHT22;9329;48.720;9.588;2023-01-10T01:50:43;7.40;99.90
18406;DHT22;9329;48.720;9.588;2023-01-10T01:53:17;7.50;99.90
18406;DHT22;9329;48.720;9.588;2023-01-10T01:55:46;7.50;99.90
18406;DHT22;9329;48.720;9.588;2023-01-10T01:58:16;7.30;99.90
18406;DHT22;9329;48.720;9.588;2023-01-10T02:00:44;7.30;99.90
18406;DHT22;9329;48.720;9.588;2023-01-10T02:03:11;7.10;99.90
18406;DHT22;9329;48.720;9.588;2023-01-10T02:05:39;7.30;99.90
18406;DHT22;9329;48.720;9.588;2023-01-10T02:08:08;7.30;99.90
18406;DHT22;9329;48.720;9.588;2023-01-10T02:10:40;7.30;99.90
18406;DHT22;9329;48.720;9.588;2023-01-10T02:13:14;7.30;99.90
18406;DHT22;9329;48.720;9.588;2023-01-10T02:15:41;7.40;99.90
18406;DHT22;9329;48.720;9.588;2023-01-10T02:18:09;7.20;99.90
18406;DHT22;9329;48.720;9.588;2023-01-10T02:20:46;7.00;99.90
18406;DHT22;9329;48.720;9.588;2023-01-10T02:26:47;7.00;99.90
18406;DHT22;9329;48.720;9.588;2023-01-10T02:29:51;7.00;99.90
18406;DHT22;9329;48.720;9.588;2023-01-10T02:32:32;6.70;99.90
18406;DHT22;9329;48.720;9.588;2023-01-10T02:35:10;7.00;99.90
18406;DHT22;9329;48.720;9.588;2023-01-10T02:37:48;7.20;99.90
18406;DHT22;9329;48.720;9.588;2023-01-10T02:40:21;7.20;99.90
18406;DHT22;9329;48.720;9.588;2023-01-10T02:42:53;7.10;99.90
18406;DHT22;9329;48.720;9.588;2023-01-10T02:45:27;7.00;99.90
18406;DHT22;9329;48.720;9.588;2023-01-10T02:47:57;6.90;99.90
18406;DHT22;9329;48.720;9.588;2023-01-10T02:50:29;6.80;99.90
18406;DHT22;9329;48.720;9.588;2023-01-10T02:52:59;6.80;99.90
18406;DHT22;9329;48.720;9.588;2023-01-10T02:55:35;6.80;99.90
18406;DHT22;9329;48.720;9.588;2023-01-10T02:58:13;7.00;99.90
18406;DHT22;9329;48.720;9.588;2023-01-10T03:00:50;6.80;99.90
18406;DHT22;9329;48.720;9.588;2023-01-10T03:03:29;6.50;99.90
18406;DHT22;9329;48.720;9.588;2023-01-10T03:06:09;6.20;99.90
18406;DHT22;9329;48.720;9.588;2023-01-10T03:08:42;6.50;99.90
18406;DHT22;9329;48.720;9.588;2023-01-10T03:11:12;6.70;99.90
18406;DHT22;9329;48.720;9.588;2023-01-10T03:13:42;6.50;99.90
18406;DHT22;9329;48.720;9.588;2023-01-10T03:16:14;6.70;99.90
18406;DHT22;9329;48.720;9.588;2023-01-10T03:18:47;6.60;99.90
18406;DHT22;9329;48.720;9.588;2023-01-10T03:21:20;6.90;99.90
18406;DHT22;9329;48.720;9.588;2023-01-10T03:23:49;6.70;99.90
18406;DHT22;9329;48.720;9.588;2023-01-10T03:26:22;6.40;99.90
18406;DHT22;9329;48.720;9.588;2023-01-10T03:28:56;6.50;99.90
18406;DHT22;9329;48.720;9.588;2023-01-10T03:31:31;6.50;99.90
18406;DHT22;9329;48.720;9.588;2023-01-10T03:34:03;6.60;99.90
18406;DHT22;9329;48.720;9.588;2023-01-10T03:36:33;6.60;99.90
18406;DHT22;9329;48.720;9.588;2023-01-10T03:39:06;6.90;99.90
18406;DHT22;9329;48.720;9.588;2023-01-10T03:41:42;6.90;99.90
18406;DHT22;9329;48.720;9.588;2023-01-10T03:44:16;7.00;99.90
18406;DHT22;9329;48.720;9.588;2023-01-10T03:47:06;7.30;99.90
18406;DHT22;9329;48.720;9.588;2023-01-10T03:49:38;7.00;99.90
18406;DHT22;9329;48.720;9.588;2023-01-10T03:52:08;7.30;99.90
18406;DHT22;9329;48.720;9.588;2023-01-10T03:54:36;7.40;99.90
18406;DHT22;9329;48.720;9.588;2023-01-10T03:57:05;7.40;99.90
18406;DHT22;9329;48.720;9.588;2023-01-10T03:59:32;7.50;99.90
18406;DHT22;9329;48.720;9.588;2023-01-10T04:01:59;7.40;99.90
18406;DHT22;9329;48.720;9.588;2023-01-10T04:04:26;7.40;99.90
18406;DHT22;9329;48.720;9.588;2023-01-10T04:06:55;7.30;99.90
18406;DHT22;9329;48.720;9.588;2023-01-10T04:09:22;7.50;99.90
18406;DHT22;9329;48.720;9.588;2023-01-10T04:11:49;7.50;99.90
18406;DHT22;9329;48.720;9.588;2023-01-10T04:14:16;7.40;99.90
18406;DHT22;9329;48.720;9.588;2023-01-10T04:16:43;7.10;99.90
18406;DHT22;9329;48.720;9.588;2023-01-10T04:19:10;7.10;99.90
18406;DHT22;9329;48.720;9.588;2023-01-10T04:21:37;7.50;99.90
18406;DHT22;9329;48.720;9.588;2023-01-10T04:24:06;7.50;99.90
18406;DHT22;9329;48.720;9.588;2023-01-10T04:26:33;7.60;99.90
18406;DHT22;9329;48.720;9.588;2023-01-10T04:29:00;7.80;99.90
18406;DHT22;9329;48.720;9.588;2023-01-10T04:31:27;7.60;99.90
18406;DHT22;9329;48.720;9.588;2023-01-10T04:33:54;7.50;99.90
18406;DHT22;9329;48.720;9.588;2023-01-10T04:36:21;7.60;99.90
18406;DHT22;9329;48.720;9.588;2023-01-10T04:38:47;7.70;99.90
18406;DHT22;9329;48.720;9.588;2023-01-10T04:41:16;7.60;99.90
18406;DHT22;9329;48.720;9.588;2023-01-10T04:43:43;7.20;99.90
18406;DHT22;9329;48.720;9.588;2023-01-10T04:46:10;7.40;99.90
18406;DHT22;9329;48.720;9.588;2023-01-10T04:48:37;7.50;99.90
18406;DHT22;9329;48.720;9.588;2023-01-10T04:51:04;7.90;99.90
18406;DHT22;9329;48.720;9.588;2023-01-10T04:53:31;7.70;99.90
18406;DHT22;9329;48.720;9.588;2023-01-10T04:56:01;7.60;99.90
18406;DHT22;9329;48.720;9.588;2023-01-10T04:58:31;7.40;99.90
18406;DHT22;9329;48.720;9.588;2023-01-10T05:00:59;7.20;99.90
18406;DHT22;9329;48.720;9.588;2023-01-10T05:03:25;7.60;99.90
18406;DHT22;9329;48.720;9.588;2023-01-10T05:05:53;7.90;99.90
18406;DHT22;9329;48.720;9.588;2023-01-10T05:08:19;7.70;99.90
18406;DHT22;9329;48.720;9.588;2023-01-10T05:10:46;7.80;99.90
18406;DHT22;9329;48.720;9.588;2023-01-10T05:13:13;7.70;99.90
18406;DHT22;9329;48.720;9.588;2023-01-10T05:15:42;7.60;99.90
18406;DHT22;9329;48.720;9.588;2023-01-10T05:18:08;7.80;99.90
18406;DHT22;9329;48.720;9.588;2023-01-10T05:20:35;7.50;99.90
18406;DHT22;9329;48.720;9.588;2023-01-10T05:23:02;7.50;99.90
18406;DHT22;9329;48.720;9.588;2023-01-10T05:25:29;7.50;99.90
18406;DHT22;9329;48.720;9.588;2023-01-10T05:27:56;6.90;99.90
18406;DHT22;9329;48.720;9.588;2023-01-10T05:30:23;7.10;99.90
18406;DHT22;9329;48.720;9.588;2023-01-10T05:32:52;7.30;99.90
18406;DHT22;9329;48.720;9.588;2023-01-10T05:35:19;7.60;99.90
18406;DHT22;9329;48.720;9.588;2023-01-10T05:37:46;7.70;99.90
18406;DHT22;9329;48.720;9.588;2023-01-10T05:40:13;7.80;99.90
18406;DHT22;9329;48.720;9.588;2023-01-10T05:42:41;7.50;99.90
18406;DHT22;9329;48.720;9.588;2023-01-10T05:45:08;7.70;99.90
18406;DHT22;9329;48.720;9.588;2023-01-10T05:47:35;7.80;99.90
18406;DHT22;9329;48.720;9.588;2023-01-10T05:50:05;7.80;99.90
18406;DHT22;9329;48.720;9.588;2023-01-10T05:52:32;7.80;99.90
18406;DHT22;9329;48.720;9.588;2023-01-10T05:54:59;7.60;99.90
18406;DHT22;9329;48.720;9.588;2023-01-10T05:57:26;7.50;99.90
18406;DHT22;9329;48.720;9.588;2023-01-10T05:59:53;6.80;99.90
18406;DHT22;9329;48.720;9.588;2023-01-10T06:02:20;6.60;99.90
18406;DHT22;9329;48.720;9.588;2023-01-10T06:04:47;7.20;99.90
18406;DHT22;9329;48.720;9.588;2023-01-10T06:07:17;7.30;99.90
18406;DHT22;9329;48.720;9.588;2023-01-10T06:09:44;7.10;99.90
18406;DHT22;9329;48.720;9.588;2023-01-10T06:12:11;7.00;99.90
18406;DHT22;9329;48.720;9.588;2023-01-10T06:14:38;6.80;99.90
18406;DHT22;9329;48.720;9.588;2023-01-10T06:17:05;7.10;99.90
18406;DHT22;9329;48.720;9.588;2023-01-10T06:19:34;6.90;99.90
18406;DHT22;9329;48.720;9.588;2023-01-10T06:22:02;6.70;99.90
18406;DHT22;9329;48.720;9.588;2023-01-10T06:24:30;6.80;99.90
18406;DHT22;9329;48.720;9.588;2023-01-10T06:26:57;6.90;99.90
18406;DHT22;9329;48.720;9.588;2023-01-10T06:29:24;7.20;99.90
18406;DHT22;9329;48.720;9.588;2023-01-10T06:31:51;9.10;99.90
18406;DHT22;9329;48.720;9.588;2023-01-10T06:34:18;6.80;99.90
18406;DHT22;9329;48.720;9.588;2023-01-10T06:36:45;7.00;99.90
18406;DHT22;9329;48.720;9.588;2023-01-10T06:39:12;6.80;99.90
18406;DHT22;9329;48.720;9.588;2023-01-10T06:41:40;7.30;99.90
18406;DHT22;9329;48.720;9.588;2023-01-10T06:44:08;7.60;99.90
18406;DHT22;9329;48.720;9.588;2023-01-10T06:46:35;7.80;99.90
18406;DHT22;9329;48.720;9.588;2023-01-10T06:49:02;8.00;99.90
18406;DHT22;9329;48.720;9.588;2023-01-10T06:51:29;7.80;99.90
18406;DHT22;9329;48.720;9.588;2023-01-10T06:53:56;7.40;99.90
18406;DHT22;9329;48.720;9.588;2023-01-10T06:56:22;7.60;99.90
18406;DHT22;9329;48.720;9.588;2023-01-10T06:58:51;7.10;99.90
18406;DHT22;9329;48.720;9.588;2023-01-10T07:01:19;6.30;99.90
18406;DHT22;9329;48.720;9.588;2023-01-10T07:03:47;7.50;99.90
18406;DHT22;9329;48.720;9.588;2023-01-10T07:06:14;7.40;99.90
18406;DHT22;9329;48.720;9.588;2023-01-10T07:08:42;7.60;99.90
18406;DHT22;9329;48.720;9.588;2023-01-10T07:11:11;7.50;99.90
18406;DHT22;9329;48.720;9.588;2023-01-10T07:13:39;7.40;99.90
18406;DHT22;9329;48.720;9.588;2023-01-10T07:16:09;7.50;99.90
18406;DHT22;9329;48.720;9.588;2023-01-10T07:18:38;7.30;99.90
18406;DHT22;9329;48.720;9.588;2023-01-10T07:21:05;7.20;99.90
18406;DHT22;9329;48.720;9.588;2023-01-10T07:23:33;7.00;99.90
18406;DHT22;9329;48.720;9.588;2023-01-10T07:26:02;7.00;99.90
18406;DHT22;9329;48.720;9.588;2023-01-10T07:28:29;7.20;99.90
18406;DHT22;9329;48.720;9.588;2023-01-10T07:30:58;6.80;99.90
18406;DHT22;9329;48.720;9.588;2023-01-10T07:33:26;6.60;99.90
18406;DHT22;9329;48.720;9.588;2023-01-10T07:35:54;6.80;99.90
18406;DHT22;9329;48.720;9.588;2023-01-10T07:38:21;6.50;99.90
18406;DHT22;9329;48.720;9.588;2023-01-10T07:40:48;6.40;99.90
18406;DHT22;9329;48.720;9.588;2023-01-10T07:43:15;6.60;99.90
18406;DHT22;9329;48.720;9.588;2023-01-10T07:45:42;6.70;99.90
18406;DHT22;9329;48.720;9.588;2023-01-10T07:48:09;6.80;99.90
18406;DHT22;9329;48.720;9.588;2023-01-10T07:50:38;6.80;99.90
18406;DHT22;9329;48.720;9.588;2023-01-10T07:53:06;6.80;99.90
18406;DHT22;9329;48.720;9.588;2023-01-10T07:55:35;7.10;99.90
18406;DHT22;9329;48.720;9.588;2023-01-10T07:58:04;7.00;99.90
18406;DHT22;9329;48.720;9.588;2023-01-10T08:00:33;7.30;99.90
18406;DHT22;9329;48.720;9.588;2023-01-10T08:03:00;7.30;99.90
18406;DHT22;9329;48.720;9.588;2023-01-10T08:05:27;7.60;99.90
18406;DHT22;9329;48.720;9.588;2023-01-10T08:07:55;7.70;99.90
18406;DHT22;9329;48.720;9.588;2023-01-10T08:10:25;7.00;99.90
18406;DHT22;9329;48.720;9.588;2023-01-10T08:12:52;6.90;99.90
18406;DHT22;9329;48.720;9.588;2023-01-10T08:15:19;7.00;99.90
18406;DHT22;9329;48.720;9.588;2023-01-10T08:17:46;7.40;99.90
18406;DHT22;9329;48.720;9.588;2023-01-10T08:20:13;7.40;99.90
18406;DHT22;9329;48.720;9.588;2023-01-10T08:22:40;7.50;99.90
18406;DHT22;9329;48.720;9.588;2023-01-10T08:25:09;7.70;99.90
18406;DHT22;9329;48.720;9.588;2023-01-10T08:27:36;7.70;99.90
18406;DHT22;9329;48.720;9.588;2023-01-10T08:30:04;7.60;99.90
18406;DHT22;9329;48.720;9.588;2023-01-10T08:32:31;7.80;99.90
18406;DHT22;9329;48.720;9.588;2023-01-10T08:34:58;7.90;99.90
18406;DHT22;9329;48.720;9.588;2023-01-10T08:37:25;7.70;99.90
18406;DHT22;9329;48.720;9.588;2023-01-10T08:39:53;7.90;99.90
18406;DHT22;9329;48.720;9.588;2023-01-10T08:42:21;7.60;99.90
18406;DHT22;9329;48.720;9.588;2023-01-10T08:44:48;7.60;99.90
18406;DHT22;9329;48.720;9.588;2023-01-10T08:47:15;7.50;99.90
18406;DHT22;9329;48.720;9.588;2023-01-10T08:49:42;7.80;99.90
18406;DHT22;9329;48.720;9.588;2023-01-10T08:52:11;8.10;99.90
18406;DHT22;9329;48.720;9.588;2023-01-10T08:54:38;8.00;99.90
18406;DHT22;9329;48.720;9.588;2023-01-10T08:57:05;7.80;99.90
18406;DHT22;9329;48.720;9.588;2023-01-10T08:59:34;7.30;99.90
18406;DHT22;9329;48.720;9.588;2023-01-10T09:02:01;7.60;99.90
18406;DHT22;9329;48.720;9.588;2023-01-10T09:04:29;7.80;99.90
18406;DHT22;9329;48.720;9.588;2023-01-10T09:06:56;8.00;99.90
18406;DHT22;9329;48.720;9.588;2023-01-10T09:09:23;8.40;99.90
18406;DHT22;9329;48.720;9.588;2023-01-10T09:11:50;9.10;99.90
18406;DHT22;9329;48.720;9.588;2023-01-10T09:14:17;9.20;99.90
18406;DHT22;9329;48.720;9.588;2023-01-10T09:16:45;9.20;99.90
18406;DHT22;9329;48.720;9.588;2023-01-10T09:19:16;9.20;99.90
18406;DHT22;9329;48.720;9.588;2023-01-10T09:21:43;8.50;99.90
18406;DHT22;9329;48.720;9.588;2023-01-10T09:24:10;8.60;99.90
18406;DHT22;9329;48.720;9.588;2023-01-10T09:26:37;8.70;99.90
18406;DHT22;9329;48.720;9.588;2023-01-10T09:29:04;9.00;99.90
18406;DHT22;9329;48.720;9.588;2023-01-10T09:31:31;8.80;99.90
18406;DHT22;9329;48.720;9.588;2023-01-10T09:33:59;8.90;99.90
18406;DHT22;9329;48.720;9.588;2023-01-10T09:36:26;9.20;99.90
18406;DHT22;9329;48.720;9.588;2023-01-10T09:38:53;9.50;99.90
18406;DHT22;9329;48.720;9.588;2023-01-10T09:41:42;9.10;99.90
18406;DHT22;9329;48.720;9.588;2023-01-10T09:44:18;9.20;99.90
18406;DHT22;9329;48.720;9.588;2023-01-10T09:46:51;9.20;99.90
18406;DHT22;9329;48.720;9.588;2023-01-10T09:49:41;8.90;99.90
18406;DHT22;9329;48.720;9.588;2023-01-10T09:52:19;9.10;99.90
18406;DHT22;9329;48.720;9.588;2023-01-10T09:54:49;9.10;99.90
18406;DHT22;9329;48.720;9.588;2023-01-10T09:57:19;9.40;99.90
18406;DHT22;9329;48.720;9.588;2023-01-10T09:59:47;9.20;99.90
18406;DHT22;9329;48.720;9.588;2023-01-10T10:02:22;9.20;99.90
18406;DHT22;9329;48.720;9.588;2023-01-10T10:05:03;8.90;99.90
18406;DHT22;9329;48.720;9.588;2023-01-10T10:07:33;9.20;99.90
18406;DHT22;9329;48.720;9.588;2023-01-10T10:10:00;8.70;99.90
18406;DHT22;9329;48.720;9.588;2023-01-10T10:12:36;8.90;99.90
18406;DHT22;9329;48.720;9.588;2023-01-10T10:15:15;9.20;99.90
18406;DHT22;9329;48.720;9.588;2023-01-10T10:17:52;9.40;99.90
18406;DHT22;9329;48.720;9.588;2023-01-10T10:20:30;9.40;99.90
18406;DHT22;9329;48.720;9.588;2023-01-10T10:23:16;9.50;99.90
18406;DHT22;9329;48.720;9.588;2023-01-10T10:25:56;9.40;99.90
18406;DHT22;9329;48.720;9.588;2023-01-10T10:31:34;8.90;99.90
18406;DHT22;9329;48.720;9.588;2023-01-10T10:34:11;8.80;99.90
18406;DHT22;9329;48.720;9.588;2023-01-10T10:36:44;9.00;99.90
18406;DHT22;9329;48.720;9.588;2023-01-10T10:39:15;8.90;99.90
18406;DHT22;9329;48.720;9.588;2023-01-10T10:41:45;8.60;99.90
18406;DHT22;9329;48.720;9.588;2023-01-10T10:44:27;9.00;99.90
18406;DHT22;9329;48.720;9.588;2023-01-10T10:46:57;9.00;99.90
18406;DHT22;9329;48.720;9.588;2023-01-10T10:49:34;9.10;99.90
18406;DHT22;9329;48.720;9.588;2023-01-10T10:52:11;8.80;99.90
18406;DHT22;9329;48.720;9.588;2023-01-10T10:54:39;9.00;99.90
18406;DHT22;9329;48.720;9.588;2023-01-10T10:57:06;9.20;99.90
18406;DHT22;9329;48.720;9.588;2023-01-10T10:59:35;9.00;99.90
18406;DHT22;9329;48.720;9.588;2023-01-10T11:02:07;8.80;99.90
18406;DHT22;9329;48.720;9.588;2023-01-10T11:04:38;9.00;99.90
18406;DHT22;9329;48.720;9.588;2023-01-10T11:07:09;9.10;99.90
18406;DHT22;9329;48.720;9.588;2023-01-10T11:09:38;9.00;99.90
18406;DHT22;9329;48.720;9.588;2023-01-10T11:12:10;9.40;99.90
18406;DHT22;9329;48.720;9.588;2023-01-10T11:14:41;9.60;99.90
18406;DHT22;9329;48.720;9.588;2023-01-10T11:17:20;9.80;99.90
18406;DHT22;9329;48.720;9.588;2023-01-10T11:19:56;9.60;99.90
18406;DHT22;9329;48.720;9.588;2023-01-10T11:22:26;9.50;99.90
18406;DHT22;9329;48.720;9.588;2023-01-10T11:24:57;9.50;99.90
18406;DHT22;9329;48.720;9.588;2023-01-10T11:27:26;9.00;99.90
18406;DHT22;9329;48.720;9.588;2023-01-10T11:29:56;9.10;99.90
18406;DHT22;9329;48.720;9.588;2023-01-10T11:32:31;9.00;99.90
18406;DHT22;9329;48.720;9.588;2023-01-10T11:35:00;9.00;99.90
18406;DHT22;9329;48.720;9.588;2023-01-10T11:37:32;9.00;99.90
18406;DHT22;9329;48.720;9.588;2023-01-10T11:40:17;9.10;99.90
18406;DHT22;9329;48.720;9.588;2023-01-10T11:42:47;9.50;99.90
18406;DHT22;9329;48.720;9.588;2023-01-10T11:45:27;9.80;99.90
18406;DHT22;9329;48.720;9.588;2023-01-10T11:48:07;9.90;99.90
18406;DHT22;9329;48.720;9.588;2023-01-10T11:50:36;9.70;99.90
18406;DHT22;9329;48.720;9.588;2023-01-10T11:53:06;9.40;99.90
18406;DHT22;9329;48.720;9.588;2023-01-10T11:55:35;9.20;99.90
18406;DHT22;9329;48.720;9.588;2023-01-10T11:58:05;9.20;99.90
18406;DHT22;9329;48.720;9.588;2023-01-10T12:00:37;9.40;99.90
18406;DHT22;9329;48.720;9.588;2023-01-10T12:03:17;9.00;99.90
18406;DHT22;9329;48.720;9.588;2023-01-10T12:05:53;9.30;99.90
18406;DHT22;9329;48.720;9.588;2023-01-10T12:08:28;9.70;99.90
18406;DHT22;9329;48.720;9.588;2023-01-10T12:10:58;9.70;99.90
18406;DHT22;9329;48.720;9.588;2023-01-10T12:13:27;9.40;99.90
18406;DHT22;9329;48.720;9.588;2023-01-10T12:16:13;9.20;99.90
18406;DHT22;9329;48.720;9.588;2023-01-10T12:18:40;9.60;99.90
18406;DHT22;9329;48.720;9.588;2023-01-10T12:21:09;9.70;99.90
18406;DHT22;9329;48.720;9.588;2023-01-10T12:23:39;9.70;99.90
18406;DHT22;9329;48.720;9.588;2023-01-10T12:26:10;9.70;99.90
18406;DHT22;9329;48.720;9.588;2023-01-10T12:28:40;9.20;99.90
18406;DHT22;9329;48.720;9.588;2023-01-10T12:31:11;9.10;99.90
18406;DHT22;9329;48.720;9.588;2023-01-10T12:33:43;9.10;99.90
18406;DHT22;9329;48.720;9.588;2023-01-10T12:36:25;8.90;99.90
18406;DHT22;9329;48.720;9.588;2023-01-10T12:39:03;9.00;99.90
18406;DHT22;9329;48.720;9.588;2023-01-10T12:41:56;9.40;99.90
18406;DHT22;9329;48.720;9.588;2023-01-10T12:44:44;9.70;99.90
18406;DHT22;9329;48.720;9.588;2023-01-10T12:47:18;10.00;99.90
18406;DHT22;9329;48.720;9.588;2023-01-10T12:49:51;10.10;99.90
18406;DHT22;9329;48.720;9.588;2023-01-10T12:52:31;10.20;99.90
18406;DHT22;9329;48.720;9.588;2023-01-10T12:55:01;10.00;99.90
18406;DHT22;9329;48.720;9.588;2023-01-10T12:57:31;10.10;99.90
18406;DHT22;9329;48.720;9.588;2023-01-10T13:00:04;10.50;99.90
18406;DHT22;9329;48.720;9.588;2023-01-10T13:02:38;10.40;99.90
18406;DHT22;9329;48.720;9.588;2023-01-10T13:05:15;10.50;99.90
18406;DHT22;9329;48.720;9.588;2023-01-10T13:07:43;10.60;99.90
18406;DHT22;9329;48.720;9.588;2023-01-10T13:10:15;11.00;99.90
18406;DHT22;9329;48.720;9.588;2023-01-10T13:12:48;11.60;99.90
18406;DHT22;9329;48.720;9.588;2023-01-10T13:15:18;12.20;99.90
18406;DHT22;9329;48.720;9.588;2023-01-10T13:17:49;12.60;99.90
18406;DHT22;9329;48.720;9.588;2023-01-10T13:20:28;12.80;99.90
18406;DHT22;9329;48.720;9.588;2023-01-10T13:22:58;13.00;99.90
18406;DHT22;9329;48.720;9.588;2023-01-10T13:25:29;13.00;99.90
18406;DHT22;9329;48.720;9.588;2023-01-10T13:27:58;12.70;99.90
18406;DHT22;9329;48.720;9.588;2023-01-10T13:30:31;12.40;99.90
18406;DHT22;9329;48.720;9.588;2023-01-10T13:33:03;12.60;99.90
18406;DHT22;9329;48.720;9.588;2023-01-10T13:35:42;12.50;99.90
18406;DHT22;9329;48.720;9.588;2023-01-10T13:38:16;12.10;99.90
18406;DHT22;9329;48.720;9.588;2023-01-10T13:41:07;11.60;99.90
18406;DHT22;9329;48.720;9.588;2023-01-10T13:44:01;11.20;99.90
18406;DHT22;9329;48.720;9.588;2023-01-10T13:46:45;11.20;99.90
18406;DHT22;9329;48.720;9.588;2023-01-10T13:49:26;11.30;99.90
18406;DHT22;9329;48.720;9.588;2023-01-10T13:52:28;10.90;99.90
18406;DHT22;9329;48.720;9.588;2023-01-10T13:54:57;10.60;99.90
18406;DHT22;9329;48.720;9.588;2023-01-10T14:00:47;10.50;99.90
18406;DHT22;9329;48.720;9.588;2023-01-10T14:03:41;10.20;99.90
18406;DHT22;9329;48.720;9.588;2023-01-10T14:06:15;10.40;99.90
18406;DHT22;9329;48.720;9.588;2023-01-10T14:08:48;9.90;99.90
18406;DHT22;9329;48.720;9.588;2023-01-10T14:11:16;9.90;99.90
18406;DHT22;9329;48.720;9.588;2023-01-10T14:13:50;9.20;99.90
18406;DHT22;9329;48.720;9.588;2023-01-10T14:16:34;10.50;99.90
18406;DHT22;9329;48.720;9.588;2023-01-10T14:19:03;10.10;99.90
18406;DHT22;9329;48.720;9.588;2023-01-10T14:21:34;9.90;99.90
18406;DHT22;9329;48.720;9.588;2023-01-10T14:24:03;10.10;99.90
18406;DHT22;9329;48.720;9.588;2023-01-10T14:26:33;10.00;99.90
18406;DHT22;9329;48.720;9.588;2023-01-10T14:29:06;10.10;99.90
18406;DHT22;9329;48.720;9.588;2023-01-10T14:31:42;9.80;99.90
18406;DHT22;9329;48.720;9.588;2023-01-10T14:34:15;9.60;99.90
18406;DHT22;9329;48.720;9.588;2023-01-10T14:36:51;9.70;99.90
18406;DHT22;9329;48.720;9.588;2023-01-10T14:39:20;9.50;99.90
18406;DHT22;9329;48.720;9.588;2023-01-10T14:41:50;9.60;99.90
18406;DHT22;9329;48.720;9.588;2023-01-10T14:44:23;10.20;99.90
18406;DHT22;9329;48.720;9.588;2023-01-10T14:46:56;10.40;99.90
18406;DHT22;9329;48.720;9.588;2023-01-10T14:49:26;10.60;99.90
18406;DHT22;9329;48.720;9.588;2023-01-10T14:51:55;10.90;99.90
18406;DHT22;9329;48.720;9.588;2023-01-10T14:54:36;10.70;99.90
18406;DHT22;9329;48.720;9.588;2023-01-10T14:57:03;10.40;99.90
18406;DHT22;9329;48.720;9.588;2023-01-10T14:59:32;10.20;99.90
18406;DHT22;9329;48.720;9.588;2023-01-10T15:02:12;10.30;99.90
18406;DHT22;9329;48.720;9.588;2023-01-10T15:04:50;10.10;99.90
18406;DHT22;9329;48.720;9.588;2023-01-10T15:07:18;10.30;99.90
18406;DHT22;9329;48.720;9.588;2023-01-10T15:09:49;10.10;99.90
18406;DHT22;9329;48.720;9.588;2023-01-10T15:12:17;10.00;99.90
18406;DHT22;9329;48.720;9.588;2023-01-10T15:14:45;9.90;99.90
18406;DHT22;9329;48.720;9.588;2023-01-10T15:17:16;9.70;99.90
18406;DHT22;9329;48.720;9.588;2023-01-10T15:19:46;9.70;99.90
18406;DHT22;9329;48.720;9.588;2023-01-10T15:22:25;9.50;99.90
18406;DHT22;9329;48.720;9.588;2023-01-10T15:24:58;9.40;99.90
18406;DHT22;9329;48.720;9.588;2023-01-10T15:27:25;9.10;99.90
18406;DHT22;9329;48.720;9.588;2023-01-10T15:29:53;8.90;99.90
18406;DHT22;9329;48.720;9.588;2023-01-10T15:32:26;8.50;99.90
18406;DHT22;9329;48.720;9.588;2023-01-10T15:34:55;8.10;99.90
18406;DHT22;9329;48.720;9.588;2023-01-10T15:37:25;8.00;99.90
18406;DHT22;9329;48.720;9.588;2023-01-10T15:39:59;7.60;99.90
18406;DHT22;9329;48.720;9.588;2023-01-10T15:42:27;8.30;99.90
18406;DHT22;9329;48.720;9.588;2023-01-10T15:44:54;8.40;99.90
18406;DHT22;9329;48.720;9.588;2023-01-10T15:47:41;8.50;99.90
18406;DHT22;9329;48.720;9.588;2023-01-10T15:50:26;8.70;99.90
18406;DHT22;9329;48.720;9.588;2023-01-10T15:52:56;8.50;99.90
18406;DHT22;9329;48.720;9.588;2023-01-10T15:55:36;8.60;99.90
18406;DHT22;9329;48.720;9.588;2023-01-10T15:58:04;8.70;99.90
18406;DHT22;9329;48.720;9.588;2023-01-10T16:00:32;8.60;99.90
18406;DHT22;9329;48.720;9.588;2023-01-10T16:03:00;8.50;99.90
18406;DHT22;9329;48.720;9.588;2023-01-10T16:05:27;8.40;99.90
18406;DHT22;9329;48.720;9.588;2023-01-10T16:07:55;8.40;99.90
18406;DHT22;9329;48.720;9.588;2023-01-10T16:10:24;8.40;99.90
18406;DHT22;9329;48.720;9.588;2023-01-10T16:12:52;8.60;99.90
18406;DHT22;9329;48.720;9.588;2023-01-10T16:15:39;8.70;99.90
18406;DHT22;9329;48.720;9.588;2023-01-10T16:18:08;8.60;99.90
18406;DHT22;9329;48.720;9.588;2023-01-10T16:20:38;7.80;99.90
18406;DHT22;9329;48.720;9.588;2023-01-10T16:23:13;7.90;99.90
18406;DHT22;9329;48.720;9.588;2023-01-10T16:25:45;8.10;99.90
18406;DHT22;9329;48.720;9.588;2023-01-10T16:28:14;8.20;99.90
18406;DHT22;9329;48.720;9.588;2023-01-10T16:30:42;8.10;99.90
18406;DHT22;9329;48.720;9.588;2023-01-10T16:33:14;8.20;99.90
18406;DHT22;9329;48.720;9.588;2023-01-10T16:35:42;7.90;99.90